sensor_id;sensor_type;location;lat;lon;timestamp;P1;durP1;ratioP1;P2;durP2;ratioP2
59950;SDS011;45812;53.540;9.774;2022-10-04T00:01:40;6.07;;;1.88;;
59950;SDS011;45812;53.540;9.774;2022-10-04T00:06:45;6.82;;;2.17;;
59950;SDS011;45812;53.540;9.774;2022-10-04T00:09:20;4.15;;;1.95;;
59950;SDS011;45812;53.540;9.774;2022-10-04T00:11:49;5.20;;;2.28;;
59950;SDS011;45812;53.540;9.774;2022-10-04T00:14:19;5.80;;;1.83;;
59950;SDS011;45812;53.540;9.774;2022-10-04T00:16:45;6.43;;;2.20;;
59950;SDS011;45812;53.540;9.774;2022-10-04T00:24:30;8.00;;;1.95;;
59950;SDS011;45812;53.540;9.774;2022-10-04T00:29:48;3.70;;;1.45;;
59950;SDS011;45812;53.540;9.774;2022-10-04T00:35:03;2.60;;;1.85;;
59950;SDS011;45812;53.540;9.774;2022-10-04T00:37:55;6.22;;;1.73;;
59950;SDS011;45812;53.540;9.774;2022-10-04T00:40:24;9.18;;;2.50;;
59950;SDS011;45812;53.540;9.774;2022-10-04T00:42:57;3.15;;;1.73;;
59950;SDS011;45812;53.540;9.774;2022-10-04T00:45:34;6.22;;;2.00;;
59950;SDS011;45812;53.540;9.774;2022-10-04T00:50:37;5.00;;;1.77;;
59950;SDS011;45812;53.540;9.774;2022-10-04T00:53:10;5.55;;;1.88;;
59950;SDS011;45812;53.540;9.774;2022-10-04T00:55:52;5.13;;;1.65;;
59950;SDS011;45812;53.540;9.774;2022-10-04T00:58:24;3.42;;;1.85;;
59950;SDS011;45812;53.540;9.774;2022-10-04T01:00:56;3.55;;;2.28;;
59950;SDS011;45812;53.540;9.774;2022-10-04T01:03:26;4.00;;;2.28;;
59950;SDS011;45812;53.540;9.774;2022-10-04T01:05:56;12.43;;;2.35;;
59950;SDS011;45812;53.540;9.774;2022-10-04T01:08:30;4.28;;;2.00;;
59950;SDS011;45812;53.540;9.774;2022-10-04T01:11:08;5.38;;;2.45;;
59950;SDS011;45812;53.540;9.774;2022-10-04T01:13:37;10.35;;;2.72;;
59950;SDS011;45812;53.540;9.774;2022-10-04T01:16:12;8.52;;;3.08;;
59950;SDS011;45812;53.540;9.774;2022-10-04T01:18:40;6.88;;;2.40;;
59950;SDS011;45812;53.540;9.774;2022-10-04T01:21:07;12.48;;;2.92;;
59950;SDS011;45812;53.540;9.774;2022-10-04T01:23:45;7.70;;;2.50;;
59950;SDS011;45812;53.540;9.774;2022-10-04T01:29:10;7.32;;;2.65;;
59950;SDS011;45812;53.540;9.774;2022-10-04T01:31:39;7.40;;;1.88;;
59950;SDS011;45812;53.540;9.774;2022-10-04T01:34:07;5.93;;;2.65;;
59950;SDS011;45812;53.540;9.774;2022-10-04T01:36:33;9.25;;;2.63;;
59950;SDS011;45812;53.540;9.774;2022-10-04T01:39:00;8.77;;;2.70;;
59950;SDS011;45812;53.540;9.774;2022-10-04T01:41:28;3.65;;;1.95;;
59950;SDS011;45812;53.540;9.774;2022-10-04T01:44:09;7.53;;;2.70;;
59950;SDS011;45812;53.540;9.774;2022-10-04T01:46:41;13.82;;;3.83;;
59950;SDS011;45812;53.540;9.774;2022-10-04T01:49:09;9.55;;;2.72;;
59950;SDS011;45812;53.540;9.774;2022-10-04T01:51:45;5.22;;;2.80;;
59950;SDS011;45812;53.540;9.774;2022-10-04T01:54:21;5.40;;;2.20;;
59950;SDS011;45812;53.540;9.774;2022-10-04T01:56:57;4.43;;;2.70;;
59950;SDS011;45812;53.540;9.774;2022-10-04T01:59:31;7.72;;;2.97;;
59950;SDS011;45812;53.540;9.774;2022-10-04T02:02:05;8.25;;;3.10;;
59950;SDS011;45812;53.540;9.774;2022-10-04T02:04:42;6.00;;;2.42;;
59950;SDS011;45812;53.540;9.774;2022-10-04T02:07:13;9.10;;;2.50;;
59950;SDS011;45812;53.540;9.774;2022-10-04T02:09:41;11.85;;;2.88;;
59950;SDS011;45812;53.540;9.774;2022-10-04T02:12:13;15.20;;;2.80;;
59950;SDS011;45812;53.540;9.774;2022-10-04T02:14:42;4.55;;;2.45;;
59950;SDS011;45812;53.540;9.774;2022-10-04T02:17:17;10.45;;;2.47;;
59950;SDS011;45812;53.540;9.774;2022-10-04T02:19:46;4.55;;;2.30;;
59950;SDS011;45812;53.540;9.774;2022-10-04T02:22:13;8.05;;;2.80;;
59950;SDS011;45812;53.540;9.774;2022-10-04T02:24:43;6.20;;;2.67;;
59950;SDS011;45812;53.540;9.774;2022-10-04T02:27:11;5.32;;;2.47;;
59950;SDS011;45812;53.540;9.774;2022-10-04T02:29:37;5.05;;;2.15;;
59950;SDS011;45812;53.540;9.774;2022-10-04T02:32:03;11.70;;;2.55;;
59950;SDS011;45812;53.540;9.774;2022-10-04T02:34:50;8.38;;;3.00;;
59950;SDS011;45812;53.540;9.774;2022-10-04T02:37:17;4.07;;;1.95;;
59950;SDS011;45812;53.540;9.774;2022-10-04T02:39:46;2.75;;;1.85;;
59950;SDS011;45812;53.540;9.774;2022-10-04T02:44:59;3.10;;;2.10;;
59950;SDS011;45812;53.540;9.774;2022-10-04T02:47:55;4.93;;;2.33;;
59950;SDS011;45812;53.540;9.774;2022-10-04T02:50:24;4.82;;;2.33;;
59950;SDS011;45812;53.540;9.774;2022-10-04T02:52:56;6.80;;;2.38;;
59950;SDS011;45812;53.540;9.774;2022-10-04T02:55:36;9.15;;;2.90;;
59950;SDS011;45812;53.540;9.774;2022-10-04T02:58:06;4.35;;;2.85;;
59950;SDS011;45812;53.540;9.774;2022-10-04T03:00:35;7.53;;;2.65;;
59950;SDS011;45812;53.540;9.774;2022-10-04T03:05:55;4.05;;;2.53;;
59950;SDS011;45812;53.540;9.774;2022-10-04T03:08:26;5.90;;;2.42;;
59950;SDS011;45812;53.540;9.774;2022-10-04T03:10:53;5.85;;;2.45;;
59950;SDS011;45812;53.540;9.774;2022-10-04T03:13:20;3.65;;;2.13;;
59950;SDS011;45812;53.540;9.774;2022-10-04T03:15:46;8.73;;;2.35;;
59950;SDS011;45812;53.540;9.774;2022-10-04T03:18:14;8.43;;;2.42;;
59950;SDS011;45812;53.540;9.774;2022-10-04T03:20:40;4.50;;;2.33;;
59950;SDS011;45812;53.540;9.774;2022-10-04T03:23:06;7.45;;;2.38;;
59950;SDS011;45812;53.540;9.774;2022-10-04T03:25:37;5.45;;;2.22;;
59950;SDS011;45812;53.540;9.774;2022-10-04T03:28:13;5.97;;;2.55;;
59950;SDS011;45812;53.540;9.774;2022-10-04T03:30:41;4.15;;;2.33;;
59950;SDS011;45812;53.540;9.774;2022-10-04T03:33:10;9.68;;;3.05;;
59950;SDS011;45812;53.540;9.774;2022-10-04T03:35:48;5.43;;;2.58;;
59950;SDS011;45812;53.540;9.774;2022-10-04T03:38:16;4.05;;;1.80;;
59950;SDS011;45812;53.540;9.774;2022-10-04T03:40:46;11.82;;;3.00;;
59950;SDS011;45812;53.540;9.774;2022-10-04T03:43:16;3.13;;;2.35;;
59950;SDS011;45812;53.540;9.774;2022-10-04T03:45:42;9.20;;;2.70;;
59950;SDS011;45812;53.540;9.774;2022-10-04T03:48:10;10.13;;;2.75;;
59950;SDS011;45812;53.540;9.774;2022-10-04T03:50:40;4.45;;;2.10;;
59950;SDS011;45812;53.540;9.774;2022-10-04T03:53:13;9.02;;;2.83;;
59950;SDS011;45812;53.540;9.774;2022-10-04T03:55:51;4.85;;;2.42;;
59950;SDS011;45812;53.540;9.774;2022-10-04T03:58:17;8.00;;;3.25;;
59950;SDS011;45812;53.540;9.774;2022-10-04T04:01:03;8.38;;;2.55;;
59950;SDS011;45812;53.540;9.774;2022-10-04T04:03:40;4.57;;;3.10;;
59950;SDS011;45812;53.540;9.774;2022-10-04T04:06:15;6.90;;;2.42;;
59950;SDS011;45812;53.540;9.774;2022-10-04T04:08:43;4.85;;;2.38;;
59950;SDS011;45812;53.540;9.774;2022-10-04T04:11:14;8.02;;;2.72;;
59950;SDS011;45812;53.540;9.774;2022-10-04T04:16:10;3.50;;;1.90;;
59950;SDS011;45812;53.540;9.774;2022-10-04T04:18:36;9.18;;;2.65;;
59950;SDS011;45812;53.540;9.774;2022-10-04T04:21:06;4.28;;;2.10;;
59950;SDS011;45812;53.540;9.774;2022-10-04T04:23:35;4.60;;;2.53;;
59950;SDS011;45812;53.540;9.774;2022-10-04T04:32:11;8.80;;;2.83;;
59950;SDS011;45812;53.540;9.774;2022-10-04T04:37:18;4.10;;;2.42;;
59950;SDS011;45812;53.540;9.774;2022-10-04T04:39:44;3.45;;;2.22;;
59950;SDS011;45812;53.540;9.774;2022-10-04T04:42:16;5.63;;;3.00;;
59950;SDS011;45812;53.540;9.774;2022-10-04T04:44:52;6.95;;;3.28;;
59950;SDS011;45812;53.540;9.774;2022-10-04T04:49:54;8.18;;;2.97;;
59950;SDS011;45812;53.540;9.774;2022-10-04T04:52:24;4.45;;;2.40;;
59950;SDS011;45812;53.540;9.774;2022-10-04T04:54:52;3.65;;;2.80;;
59950;SDS011;45812;53.540;9.774;2022-10-04T04:57:19;6.57;;;3.08;;
59950;SDS011;45812;53.540;9.774;2022-10-04T04:59:46;6.85;;;2.95;;
59950;SDS011;45812;53.540;9.774;2022-10-04T05:08:02;13.45;;;3.30;;
59950;SDS011;45812;53.540;9.774;2022-10-04T05:10:37;4.25;;;2.83;;
59950;SDS011;45812;53.540;9.774;2022-10-04T05:13:07;7.40;;;3.60;;
59950;SDS011;45812;53.540;9.774;2022-10-04T05:15:36;6.30;;;3.17;;
59950;SDS011;45812;53.540;9.774;2022-10-04T05:20:52;5.30;;;3.08;;
59950;SDS011;45812;53.540;9.774;2022-10-04T05:23:19;11.23;;;3.10;;
59950;SDS011;45812;53.540;9.774;2022-10-04T05:25:44;3.92;;;2.97;;
59950;SDS011;45812;53.540;9.774;2022-10-04T05:28:11;7.78;;;3.47;;
59950;SDS011;45812;53.540;9.774;2022-10-04T05:33:20;9.32;;;3.33;;
59950;SDS011;45812;53.540;9.774;2022-10-04T05:38:37;10.43;;;3.42;;
59950;SDS011;45812;53.540;9.774;2022-10-04T05:43:49;7.75;;;3.47;;
59950;SDS011;45812;53.540;9.774;2022-10-04T05:48:44;11.70;;;3.38;;
59950;SDS011;45812;53.540;9.774;2022-10-04T05:51:25;3.22;;;2.85;;
59950;SDS011;45812;53.540;9.774;2022-10-04T05:53:59;8.82;;;3.90;;
59950;SDS011;45812;53.540;9.774;2022-10-04T06:06:39;7.85;;;4.47;;
59950;SDS011;45812;53.540;9.774;2022-10-04T06:12:16;8.75;;;4.03;;
59950;SDS011;45812;53.540;9.774;2022-10-04T06:20:18;11.60;;;4.50;;
59950;SDS011;45812;53.540;9.774;2022-10-04T06:22:58;10.60;;;4.68;;
59950;SDS011;45812;53.540;9.774;2022-10-04T06:28:17;14.65;;;5.18;;
59950;SDS011;45812;53.540;9.774;2022-10-04T06:36:59;14.30;;;4.72;;
59950;SDS011;45812;53.540;9.774;2022-10-04T06:51:01;11.50;;;4.55;;
59950;SDS011;45812;53.540;9.774;2022-10-04T07:03:56;12.65;;;5.22;;
59950;SDS011;45812;53.540;9.774;2022-10-04T07:06:49;10.00;;;5.20;;
59950;SDS011;45812;53.540;9.774;2022-10-04T07:09:23;12.50;;;4.90;;
59950;SDS011;45812;53.540;9.774;2022-10-04T07:11:57;11.52;;;4.93;;
59950;SDS011;45812;53.540;9.774;2022-10-04T07:14:36;14.93;;;5.07;;
59950;SDS011;45812;53.540;9.774;2022-10-04T07:17:09;11.05;;;4.85;;
59950;SDS011;45812;53.540;9.774;2022-10-04T07:19:39;11.57;;;4.32;;
59950;SDS011;45812;53.540;9.774;2022-10-04T07:22:12;8.52;;;4.65;;
59950;SDS011;45812;53.540;9.774;2022-10-04T07:24:56;7.72;;;4.50;;
59950;SDS011;45812;53.540;9.774;2022-10-04T07:27:31;12.90;;;5.15;;
59950;SDS011;45812;53.540;9.774;2022-10-04T07:30:02;8.45;;;4.63;;
59950;SDS011;45812;53.540;9.774;2022-10-04T07:32:31;15.80;;;4.93;;
59950;SDS011;45812;53.540;9.774;2022-10-04T07:37:53;17.02;;;5.53;;
59950;SDS011;45812;53.540;9.774;2022-10-04T07:40:26;12.90;;;5.00;;
59950;SDS011;45812;53.540;9.774;2022-10-04T07:42:56;12.38;;;5.20;;
59950;SDS011;45812;53.540;9.774;2022-10-04T07:45:45;11.73;;;6.03;;
59950;SDS011;45812;53.540;9.774;2022-10-04T07:48:12;15.13;;;5.57;;
59950;SDS011;45812;53.540;9.774;2022-10-04T07:53:14;15.82;;;6.45;;
59950;SDS011;45812;53.540;9.774;2022-10-04T08:09:06;14.43;;;6.13;;
59950;SDS011;45812;53.540;9.774;2022-10-04T08:20:10;14.07;;;6.30;;
59950;SDS011;45812;53.540;9.774;2022-10-04T08:22:53;14.10;;;5.82;;
59950;SDS011;45812;53.540;9.774;2022-10-04T08:36:29;17.50;;;5.82;;
59950;SDS011;45812;53.540;9.774;2022-10-04T08:39:13;13.70;;;5.68;;
59950;SDS011;45812;53.540;9.774;2022-10-04T08:47:14;15.40;;;5.35;;
59950;SDS011;45812;53.540;9.774;2022-10-04T08:53:01;11.32;;;5.03;;
59950;SDS011;45812;53.540;9.774;2022-10-04T08:55:49;13.95;;;6.65;;
59950;SDS011;45812;53.540;9.774;2022-10-04T09:04:35;16.83;;;6.63;;
59950;SDS011;45812;53.540;9.774;2022-10-04T09:09:54;14.90;;;5.20;;
59950;SDS011;45812;53.540;9.774;2022-10-04T09:12:53;15.77;;;5.00;;
59950;SDS011;45812;53.540;9.774;2022-10-04T09:15:42;17.38;;;6.07;;
59950;SDS011;45812;53.540;9.774;2022-10-04T09:21:06;19.98;;;5.57;;
59950;SDS011;45812;53.540;9.774;2022-10-04T09:29:24;17.52;;;5.03;;
59950;SDS011;45812;53.540;9.774;2022-10-04T09:38:37;11.15;;;4.60;;
59950;SDS011;45812;53.540;9.774;2022-10-04T09:41:26;12.55;;;5.32;;
59950;SDS011;45812;53.540;9.774;2022-10-04T09:47:13;11.73;;;5.32;;
59950;SDS011;45812;53.540;9.774;2022-10-04T09:55:30;14.38;;;5.28;;
59950;SDS011;45812;53.540;9.774;2022-10-04T10:00:41;14.60;;;4.80;;
59950;SDS011;45812;53.540;9.774;2022-10-04T10:07:09;10.52;;;4.43;;
59950;SDS011;45812;53.540;9.774;2022-10-04T10:12:43;15.80;;;4.32;;
59950;SDS011;45812;53.540;9.774;2022-10-04T10:21:26;9.93;;;4.00;;
59950;SDS011;45812;53.540;9.774;2022-10-04T10:30:07;12.13;;;4.68;;
59950;SDS011;45812;53.540;9.774;2022-10-04T10:32:46;11.40;;;4.82;;
59950;SDS011;45812;53.540;9.774;2022-10-04T10:35:24;11.05;;;5.13;;
59950;SDS011;45812;53.540;9.774;2022-10-04T10:41:16;8.30;;;3.65;;
59950;SDS011;45812;53.540;9.774;2022-10-04T10:51:52;17.88;;;3.60;;
59950;SDS011;45812;53.540;9.774;2022-10-04T11:03:29;13.00;;;3.97;;
59950;SDS011;45812;53.540;9.774;2022-10-04T11:09:11;12.60;;;3.97;;
59950;SDS011;45812;53.540;9.774;2022-10-04T11:12:04;11.90;;;3.90;;
59950;SDS011;45812;53.540;9.774;2022-10-04T11:32:03;13.57;;;3.23;;
59950;SDS011;45812;53.540;9.774;2022-10-04T11:35:08;14.18;;;3.35;;
59950;SDS011;45812;53.540;9.774;2022-10-04T11:41:13;8.15;;;2.80;;
59950;SDS011;45812;53.540;9.774;2022-10-04T11:49:37;7.05;;;2.00;;
59950;SDS011;45812;53.540;9.774;2022-10-04T11:58:23;7.40;;;2.53;;
59950;SDS011;45812;53.540;9.774;2022-10-04T12:04:14;9.25;;;2.83;;
59950;SDS011;45812;53.540;9.774;2022-10-04T12:29:19;9.73;;;2.47;;
59950;SDS011;45812;53.540;9.774;2022-10-04T12:32:13;8.73;;;2.63;;
59950;SDS011;45812;53.540;9.774;2022-10-04T12:34:50;10.05;;;2.42;;
59950;SDS011;45812;53.540;9.774;2022-10-04T12:37:31;6.93;;;2.67;;
59950;SDS011;45812;53.540;9.774;2022-10-04T12:40:17;9.27;;;2.60;;
59950;SDS011;45812;53.540;9.774;2022-10-04T12:48:12;8.65;;;2.50;;
59950;SDS011;45812;53.540;9.774;2022-10-04T12:50:51;10.18;;;2.83;;
59950;SDS011;45812;53.540;9.774;2022-10-04T12:56:01;9.63;;;2.58;;
59950;SDS011;45812;53.540;9.774;2022-10-04T13:01:17;4.05;;;2.08;;
59950;SDS011;45812;53.540;9.774;2022-10-04T13:09:06;6.22;;;2.08;;
59950;SDS011;45812;53.540;9.774;2022-10-04T13:14:38;6.85;;;2.20;;
59950;SDS011;45812;53.540;9.774;2022-10-04T13:17:57;6.32;;;2.03;;
59950;SDS011;45812;53.540;9.774;2022-10-04T13:25:17;4.03;;;2.10;;
59950;SDS011;45812;53.540;9.774;2022-10-04T13:28:00;7.13;;;2.25;;
59950;SDS011;45812;53.540;9.774;2022-10-04T13:30:36;15.40;;;2.78;;
59950;SDS011;45812;53.540;9.774;2022-10-04T13:33:14;5.32;;;1.90;;
59950;SDS011;45812;53.540;9.774;2022-10-04T13:35:56;8.88;;;3.22;;
59950;SDS011;45812;53.540;9.774;2022-10-04T13:38:37;4.50;;;2.50;;
59950;SDS011;45812;53.540;9.774;2022-10-04T13:41:31;3.28;;;2.08;;
59950;SDS011;45812;53.540;9.774;2022-10-04T13:49:35;6.75;;;2.30;;
59950;SDS011;45812;53.540;9.774;2022-10-04T14:01:14;5.38;;;2.30;;
59950;SDS011;45812;53.540;9.774;2022-10-04T14:04:15;6.10;;;2.33;;
59950;SDS011;45812;53.540;9.774;2022-10-04T14:10:00;5.43;;;2.65;;
59950;SDS011;45812;53.540;9.774;2022-10-04T14:24:31;9.02;;;2.65;;
59950;SDS011;45812;53.540;9.774;2022-10-04T14:33:02;9.45;;;2.33;;
59950;SDS011;45812;53.540;9.774;2022-10-04T14:42:03;6.00;;;2.38;;
59950;SDS011;45812;53.540;9.774;2022-10-04T14:45:09;7.40;;;2.40;;
59950;SDS011;45812;53.540;9.774;2022-10-04T14:53:48;6.60;;;2.33;;
59950;SDS011;45812;53.540;9.774;2022-10-04T14:59:34;7.68;;;2.60;;
59950;SDS011;45812;53.540;9.774;2022-10-04T15:05:02;7.30;;;2.55;;
59950;SDS011;45812;53.540;9.774;2022-10-04T15:07:36;7.97;;;2.50;;
59950;SDS011;45812;53.540;9.774;2022-10-04T15:13:06;7.78;;;2.60;;
59950;SDS011;45812;53.540;9.774;2022-10-04T15:23:37;7.30;;;2.53;;
59950;SDS011;45812;53.540;9.774;2022-10-04T15:26:12;6.50;;;2.70;;
59950;SDS011;45812;53.540;9.774;2022-10-04T15:29:06;8.23;;;2.92;;
59950;SDS011;45812;53.540;9.774;2022-10-04T15:32:03;4.65;;;2.47;;
59950;SDS011;45812;53.540;9.774;2022-10-04T15:34:43;9.40;;;2.97;;
59950;SDS011;45812;53.540;9.774;2022-10-04T15:37:25;5.30;;;2.38;;
59950;SDS011;45812;53.540;9.774;2022-10-04T15:43:01;7.72;;;2.50;;
59950;SDS011;45812;53.540;9.774;2022-10-04T15:45:34;5.72;;;2.80;;
59950;SDS011;45812;53.540;9.774;2022-10-04T15:51:18;6.00;;;2.20;;
59950;SDS011;45812;53.540;9.774;2022-10-04T16:00:08;8.27;;;2.67;;
59950;SDS011;45812;53.540;9.774;2022-10-04T16:05:25;7.15;;;2.60;;
59950;SDS011;45812;53.540;9.774;2022-10-04T16:22:08;6.78;;;2.53;;
59950;SDS011;45812;53.540;9.774;2022-10-04T16:24:55;4.30;;;2.17;;
59950;SDS011;45812;53.540;9.774;2022-10-04T16:27:36;5.43;;;2.92;;
59950;SDS011;45812;53.540;9.774;2022-10-04T16:33:39;7.80;;;3.90;;
59950;SDS011;45812;53.540;9.774;2022-10-04T16:36:15;9.18;;;2.80;;
59950;SDS011;45812;53.540;9.774;2022-10-04T16:38:47;7.97;;;2.60;;
59950;SDS011;45812;53.540;9.774;2022-10-04T16:41:41;10.75;;;2.95;;
59950;SDS011;45812;53.540;9.774;2022-10-04T16:44:28;9.68;;;3.20;;
59950;SDS011;45812;53.540;9.774;2022-10-04T16:46:59;7.97;;;3.03;;
59950;SDS011;45812;53.540;9.774;2022-10-04T16:49:48;8.23;;;3.50;;
59950;SDS011;45812;53.540;9.774;2022-10-04T16:57:33;9.85;;;3.50;;
59950;SDS011;45812;53.540;9.774;2022-10-04T17:00:24;8.15;;;3.50;;
59950;SDS011;45812;53.540;9.774;2022-10-04T17:06:11;8.57;;;3.53;;
59950;SDS011;45812;53.540;9.774;2022-10-04T17:09:24;9.25;;;3.17;;
59950;SDS011;45812;53.540;9.774;2022-10-04T17:20:05;6.35;;;3.10;;
59950;SDS011;45812;53.540;9.774;2022-10-04T17:28:13;4.43;;;3.00;;
59950;SDS011;45812;53.540;9.774;2022-10-04T17:30:59;8.02;;;3.17;;
59950;SDS011;45812;53.540;9.774;2022-10-04T17:42:27;8.00;;;3.33;;
59950;SDS011;45812;53.540;9.774;2022-10-04T17:47:09;7.82;;;2.83;;
59950;SDS011;45812;53.540;9.774;2022-10-04T17:49:51;10.00;;;4.03;;
59950;SDS011;45812;53.540;9.774;2022-10-04T17:52:48;9.82;;;3.60;;
59950;SDS011;45812;53.540;9.774;2022-10-04T17:58:15;9.93;;;4.38;;
59950;SDS011;45812;53.540;9.774;2022-10-04T18:03:34;6.43;;;3.22;;
59950;SDS011;45812;53.540;9.774;2022-10-04T18:06:10;6.72;;;3.20;;
59950;SDS011;45812;53.540;9.774;2022-10-04T18:08:54;9.82;;;3.47;;
59950;SDS011;45812;53.540;9.774;2022-10-04T18:11:27;8.27;;;3.40;;
59950;SDS011;45812;53.540;9.774;2022-10-04T18:17:07;7.93;;;4.50;;
59950;SDS011;45812;53.540;9.774;2022-10-04T18:19:49;8.40;;;4.05;;
59950;SDS011;45812;53.540;9.774;2022-10-04T18:22:25;10.43;;;4.18;;
59950;SDS011;45812;53.540;9.774;2022-10-04T18:25:11;6.80;;;4.00;;
59950;SDS011;45812;53.540;9.774;2022-10-04T18:30:30;14.63;;;4.00;;
59950;SDS011;45812;53.540;9.774;2022-10-04T18:32:57;8.45;;;3.90;;
59950;SDS011;45812;53.540;9.774;2022-10-04T18:35:23;8.45;;;3.70;;
59950;SDS011;45812;53.540;9.774;2022-10-04T18:37:55;6.57;;;3.78;;
59950;SDS011;45812;53.540;9.774;2022-10-04T18:40:42;6.35;;;3.78;;
59950;SDS011;45812;53.540;9.774;2022-10-04T18:43:39;6.28;;;3.30;;
59950;SDS011;45812;53.540;9.774;2022-10-04T18:48:38;12.60;;;4.78;;
59950;SDS011;45812;53.540;9.774;2022-10-04T18:51:20;10.57;;;3.90;;
59950;SDS011;45812;53.540;9.774;2022-10-04T18:56:56;9.73;;;3.88;;
59950;SDS011;45812;53.540;9.774;2022-10-04T18:59:33;6.47;;;3.75;;
59950;SDS011;45812;53.540;9.774;2022-10-04T19:04:56;8.38;;;3.65;;
59950;SDS011;45812;53.540;9.774;2022-10-04T19:07:36;8.32;;;4.40;;
59950;SDS011;45812;53.540;9.774;2022-10-04T19:12:55;7.80;;;3.65;;
59950;SDS011;45812;53.540;9.774;2022-10-04T19:15:37;5.93;;;3.85;;
59950;SDS011;45812;53.540;9.774;2022-10-04T19:26:42;5.35;;;3.35;;
59950;SDS011;45812;53.540;9.774;2022-10-04T19:32:03;8.02;;;3.90;;
59950;SDS011;45812;53.540;9.774;2022-10-04T19:34:40;9.27;;;5.13;;
59950;SDS011;45812;53.540;9.774;2022-10-04T19:37:20;8.18;;;3.60;;
59950;SDS011;45812;53.540;9.774;2022-10-04T19:39:55;5.72;;;4.05;;
59950;SDS011;45812;53.540;9.774;2022-10-04T19:42:39;10.35;;;4.70;;
59950;SDS011;45812;53.540;9.774;2022-10-04T19:48:21;9.77;;;4.20;;
59950;SDS011;45812;53.540;9.774;2022-10-04T19:50:52;10.25;;;4.35;;
59950;SDS011;45812;53.540;9.774;2022-10-04T19:56:05;11.35;;;3.90;;
59950;SDS011;45812;53.540;9.774;2022-10-04T19:58:46;9.00;;;4.50;;
59950;SDS011;45812;53.540;9.774;2022-10-04T20:01:17;5.20;;;3.83;;
59950;SDS011;45812;53.540;9.774;2022-10-04T20:03:50;9.55;;;4.82;;
59950;SDS011;45812;53.540;9.774;2022-10-04T20:06:56;9.90;;;3.90;;
59950;SDS011;45812;53.540;9.774;2022-10-04T20:11:52;15.13;;;4.85;;
59950;SDS011;45812;53.540;9.774;2022-10-04T20:21:53;7.47;;;4.43;;
59950;SDS011;45812;53.540;9.774;2022-10-04T20:27:00;8.48;;;4.45;;
59950;SDS011;45812;53.540;9.774;2022-10-04T20:32:04;6.32;;;4.25;;
59950;SDS011;45812;53.540;9.774;2022-10-04T20:37:03;8.57;;;4.05;;
59950;SDS011;45812;53.540;9.774;2022-10-04T20:42:10;13.52;;;4.53;;
59950;SDS011;45812;53.540;9.774;2022-10-04T20:47:28;14.43;;;4.57;;
59950;SDS011;45812;53.540;9.774;2022-10-04T20:49:54;9.75;;;4.25;;
59950;SDS011;45812;53.540;9.774;2022-10-04T20:52:23;9.85;;;4.85;;
59950;SDS011;45812;53.540;9.774;2022-10-04T20:54:52;7.57;;;4.25;;
59950;SDS011;45812;53.540;9.774;2022-10-04T20:57:18;12.35;;;4.75;;
59950;SDS011;45812;53.540;9.774;2022-10-04T20:59:48;10.15;;;4.75;;
59950;SDS011;45812;53.540;9.774;2022-10-04T21:02:15;9.30;;;4.25;;
59950;SDS011;45812;53.540;9.774;2022-10-04T21:04:41;10.75;;;4.97;;
59950;SDS011;45812;53.540;9.774;2022-10-04T21:07:09;13.68;;;4.75;;
59950;SDS011;45812;53.540;9.774;2022-10-04T21:09:40;10.98;;;4.45;;
59950;SDS011;45812;53.540;9.774;2022-10-04T21:12:06;8.98;;;4.90;;
59950;SDS011;45812;53.540;9.774;2022-10-04T21:17:39;7.40;;;4.82;;
59950;SDS011;45812;53.540;9.774;2022-10-04T21:20:08;14.00;;;5.55;;
59950;SDS011;45812;53.540;9.774;2022-10-04T21:25:26;12.73;;;5.60;;
59950;SDS011;45812;53.540;9.774;2022-10-04T21:28:12;10.55;;;5.38;;
59950;SDS011;45812;53.540;9.774;2022-10-04T21:30:46;8.45;;;4.93;;
59950;SDS011;45812;53.540;9.774;2022-10-04T21:33:11;11.52;;;4.70;;
59950;SDS011;45812;53.540;9.774;2022-10-04T21:35:37;10.05;;;5.07;;
59950;SDS011;45812;53.540;9.774;2022-10-04T21:38:02;7.55;;;4.30;;
59950;SDS011;45812;53.540;9.774;2022-10-04T21:40:27;9.52;;;4.57;;
59950;SDS011;45812;53.540;9.774;2022-10-04T21:42:53;7.88;;;4.55;;
59950;SDS011;45812;53.540;9.774;2022-10-04T21:45:18;11.30;;;5.97;;
59950;SDS011;45812;53.540;9.774;2022-10-04T21:47:43;9.25;;;4.38;;
59950;SDS011;45812;53.540;9.774;2022-10-04T21:50:09;7.13;;;4.40;;
59950;SDS011;45812;53.540;9.774;2022-10-04T21:52:34;12.90;;;4.88;;
59950;SDS011;45812;53.540;9.774;2022-10-04T21:54:59;11.18;;;4.80;;
59950;SDS011;45812;53.540;9.774;2022-10-04T21:57:24;10.63;;;5.07;;
59950;SDS011;45812;53.540;9.774;2022-10-04T21:59:50;8.80;;;4.50;;
59950;SDS011;45812;53.540;9.774;2022-10-04T22:02:15;14.20;;;4.78;;
59950;SDS011;45812;53.540;9.774;2022-10-04T22:04:40;8.40;;;5.22;;
59950;SDS011;45812;53.540;9.774;2022-10-04T22:07:06;10.32;;;5.13;;
59950;SDS011;45812;53.540;9.774;2022-10-04T22:09:31;12.25;;;4.82;;
59950;SDS011;45812;53.540;9.774;2022-10-04T22:11:57;11.38;;;5.53;;
59950;SDS011;45812;53.540;9.774;2022-10-04T22:14:23;9.48;;;4.53;;
59950;SDS011;45812;53.540;9.774;2022-10-04T22:16:48;18.33;;;5.05;;
59950;SDS011;45812;53.540;9.774;2022-10-04T22:19:13;12.48;;;4.88;;
59950;SDS011;45812;53.540;9.774;2022-10-04T22:21:39;11.80;;;5.00;;
59950;SDS011;45812;53.540;9.774;2022-10-04T22:24:08;17.90;;;5.75;;
59950;SDS011;45812;53.540;9.774;2022-10-04T22:26:39;12.77;;;5.15;;
59950;SDS011;45812;53.540;9.774;2022-10-04T22:29:08;16.17;;;4.80;;
59950;SDS011;45812;53.540;9.774;2022-10-04T22:31:37;10.88;;;4.82;;
59950;SDS011;45812;53.540;9.774;2022-10-04T22:34:07;11.00;;;5.28;;
59950;SDS011;45812;53.540;9.774;2022-10-04T22:36:39;11.43;;;5.25;;
59950;SDS011;45812;53.540;9.774;2022-10-04T22:41:34;9.88;;;5.60;;
59950;SDS011;45812;53.540;9.774;2022-10-04T22:46:47;14.57;;;5.68;;
59950;SDS011;45812;53.540;9.774;2022-10-04T22:49:16;15.93;;;5.18;;
59950;SDS011;45812;53.540;9.774;2022-10-04T22:51:53;10.15;;;4.88;;
59950;SDS011;45812;53.540;9.774;2022-10-04T22:54:23;8.98;;;4.90;;
59950;SDS011;45812;53.540;9.774;2022-10-04T22:56:50;12.73;;;5.43;;
59950;SDS011;45812;53.540;9.774;2022-10-04T22:59:17;9.32;;;4.97;;
59950;SDS011;45812;53.540;9.774;2022-10-04T23:01:43;12.02;;;5.50;;
59950;SDS011;45812;53.540;9.774;2022-10-04T23:04:22;11.68;;;5.50;;
59950;SDS011;45812;53.540;9.774;2022-10-04T23:06:49;11.82;;;4.97;;
59950;SDS011;45812;53.540;9.774;2022-10-04T23:09:16;10.50;;;5.38;;
59950;SDS011;45812;53.540;9.774;2022-10-04T23:11:43;11.30;;;5.00;;
59950;SDS011;45812;53.540;9.774;2022-10-04T23:14:09;10.20;;;4.95;;
59950;SDS011;45812;53.540;9.774;2022-10-04T23:16:34;12.18;;;5.43;;
59950;SDS011;45812;53.540;9.774;2022-10-04T23:21:32;14.02;;;4.80;;
59950;SDS011;45812;53.540;9.774;2022-10-04T23:24:00;10.52;;;5.03;;
59950;SDS011;45812;53.540;9.774;2022-10-04T23:26:39;10.75;;;4.90;;
59950;SDS011;45812;53.540;9.774;2022-10-04T23:29:05;12.90;;;5.60;;
59950;SDS011;45812;53.540;9.774;2022-10-04T23:31:39;8.10;;;4.50;;
59950;SDS011;45812;53.540;9.774;2022-10-04T23:34:09;12.95;;;5.07;;
59950;SDS011;45812;53.540;9.774;2022-10-04T23:36:39;12.88;;;4.88;;
59950;SDS011;45812;53.540;9.774;2022-10-04T23:39:05;11.52;;;5.70;;
59950;SDS011;45812;53.540;9.774;2022-10-04T23:41:41;11.98;;;4.80;;
59950;SDS011;45812;53.540;9.774;2022-10-04T23:44:09;9.55;;;5.05;;
59950;SDS011;45812;53.540;9.774;2022-10-04T23:46:37;11.90;;;5.45;;
59950;SDS011;45812;53.540;9.774;2022-10-04T23:49:02;11.75;;;5.63;;
59950;SDS011;45812;53.540;9.774;2022-10-04T23:51:27;13.65;;;5.47;;
59950;SDS011;45812;53.540;9.774;2022-10-04T23:53:53;9.75;;;5.22;;
59950;SDS011;45812;53.540;9.774;2022-10-04T23:58:48;10.73;;;6.30;;
